createdAt,value
2019-04-23T00:00:04.950Z,100615.20
2019-04-23T00:02:53.526Z,100609.23
2019-04-23T00:05:17.009Z,100609.14
2019-04-23T00:17:42.196Z,100601.26
2019-04-23T00:20:09.569Z,100603.78
2019-04-23T00:26:22.186Z,100601.10
2019-04-23T00:28:35.242Z,100596.46
2019-04-23T00:31:06.789Z,100592.63
2019-04-23T00:33:29.713Z,100597.48
2019-04-23T00:35:56.591Z,100589.00
2019-04-23T00:38:34.938Z,100588.20
2019-04-23T00:41:01.650Z,100596.16
2019-04-23T00:43:30.603Z,100593.08
2019-04-23T00:48:45.486Z,100586.48
2019-04-23T00:53:33.132Z,100591.52
2019-04-23T01:03:17.504Z,100590.95
2019-04-23T01:05:58.872Z,100589.08
2019-04-23T01:13:41.220Z,100582.06
2019-04-23T01:16:04.465Z,100583.88
2019-04-23T01:18:39.589Z,100588.05
2019-04-23T01:20:53.799Z,100578.62
2019-04-23T01:23:20.632Z,100581.73
2019-04-23T01:25:58.855Z,100583.80
2019-04-23T01:28:48.232Z,100585.85
2019-04-23T01:31:18.229Z,100581.73
2019-04-23T01:38:42.264Z,100574.82
2019-04-23T01:41:09.707Z,100574.66
2019-04-23T01:43:36.574Z,100576.09
2019-04-23T01:46:02.453Z,100570.95
2019-04-23T01:48:34.241Z,100580.50
2019-04-23T01:50:56.078Z,100565.23
2019-04-23T01:56:03.108Z,100560.89
2019-04-23T02:00:53.214Z,100559.86
2019-04-23T02:03:26.901Z,100553.11
2019-04-23T02:05:55.654Z,100559.08
2019-04-23T02:08:20.917Z,100559.08
2019-04-23T02:13:23.820Z,100551.52
2019-04-23T02:15:49.102Z,100550.10
2019-04-23T02:18:16.332Z,100545.06
2019-04-23T02:20:56.490Z,100547.59
2019-04-23T02:25:58.742Z,100548.22
2019-04-23T02:28:25.372Z,100545.17
2019-04-23T02:33:34.401Z,100538.52
2019-04-23T02:38:31.817Z,100534.28
2019-04-23T02:41:09.002Z,100532.80
2019-04-23T02:43:25.956Z,100530.44
2019-04-23T02:46:02.341Z,100522.97
2019-04-23T02:53:30.754Z,100527.52
2019-04-23T02:55:50.065Z,100525.34
2019-04-23T03:03:31.742Z,100518.92
2019-04-23T03:05:46.710Z,100522.83
2019-04-23T03:08:12.782Z,100525.61
2019-04-23T03:10:51.756Z,100518.45
2019-04-23T03:13:27.952Z,100511.64
2019-04-23T03:16:08.490Z,100513.88
2019-04-23T03:18:53.648Z,100511.31
2019-04-23T03:21:51.972Z,100503.94
2019-04-23T03:24:47.746Z,100503.09
2019-04-23T03:29:31.660Z,100504.33
2019-04-23T03:35:15.983Z,100491.63
2019-04-23T03:39:32.884Z,100505.44
2019-04-23T03:41:53.528Z,100501.04
2019-04-23T03:44:20.557Z,100496.47
2019-04-23T03:46:41.649Z,100493.06
2019-04-23T03:49:15.317Z,100487.42
2019-04-23T03:51:52.400Z,100495.47
2019-04-23T03:54:26.213Z,100496.91
2019-04-23T03:56:56.239Z,100497.56
2019-04-23T03:59:20.053Z,100485.28
2019-04-23T04:01:45.805Z,100487.80
2019-04-23T04:06:50.107Z,100476.48
2019-04-23T04:09:22.511Z,100480.25
2019-04-23T04:11:45.048Z,100476.47
2019-04-23T04:19:16.666Z,100477.11
2019-04-23T04:21:33.614Z,100473.71
2019-04-23T04:24:13.190Z,100470.66
2019-04-23T04:26:49.323Z,100475.28
2019-04-23T04:29:00.864Z,100468.59
2019-04-23T04:31:42.828Z,100479.14
2019-04-23T04:38:54.386Z,100474.34
2019-04-23T04:41:28.324Z,100473.81
2019-04-23T04:44:07.371Z,100472.08
2019-04-23T04:46:30.518Z,100469.89
2019-04-23T04:48:55.820Z,100465.62
2019-04-23T04:56:20.318Z,100468.99
2019-04-23T04:58:47.593Z,100470.67
2019-04-23T05:03:29.198Z,100458.47
2019-04-23T05:06:16.185Z,100466.50
2019-04-23T05:08:48.137Z,100464.27
2019-04-23T05:18:38.610Z,100460.30
2019-04-23T05:21:05.664Z,100456.83
2019-04-23T05:26:08.594Z,100458.16
2019-04-23T05:28:40.911Z,100455.22
2019-04-23T05:31:12.120Z,100450.52
2019-04-23T05:33:37.118Z,100448.02
2019-04-23T05:38:42.892Z,100448.00
2019-04-23T05:41:11.836Z,100443.77
2019-04-23T05:43:38.516Z,100452.89
2019-04-23T05:46:04.393Z,100448.31
2019-04-23T05:48:46.979Z,100434.47
2019-04-23T05:51:09.579Z,100443.13
2019-04-23T05:53:26.970Z,100440.29
2019-04-23T05:58:28.844Z,100443.74
2019-04-23T06:01:25.140Z,100446.23
2019-04-23T06:03:44.441Z,100443.48
2019-04-23T06:06:11.199Z,100441.83
2019-04-23T06:08:38.506Z,100444.66
2019-04-23T06:11:08.520Z,100444.53
2019-04-23T06:13:48.083Z,100450.23
2019-04-23T06:16:06.398Z,100441.19
2019-04-23T06:18:38.932Z,100445.30
2019-04-23T06:21:15.323Z,100440.86
2019-04-23T06:26:14.329Z,100440.61
2019-04-23T06:28:27.087Z,100443.80
2019-04-23T06:33:27.690Z,100431.36
2019-04-23T06:35:59.101Z,100427.81
2019-04-23T06:38:41.229Z,100437.73
2019-04-23T06:40:55.501Z,100431.58
2019-04-23T06:45:50.902Z,100427.30
2019-04-23T06:48:28.329Z,100424.30
2019-04-23T06:50:56.241Z,100423.41
2019-04-23T06:53:19.720Z,100423.95
2019-04-23T06:56:04.486Z,100419.22
2019-04-23T06:58:34.245Z,100414.17
2019-04-23T07:01:01.581Z,100421.63
2019-04-23T07:03:33.907Z,100413.79
2019-04-23T07:06:16.802Z,100414.14
2019-04-23T07:08:43.245Z,100410.55
2019-04-23T07:11:08.088Z,100405.55
2019-04-23T07:13:46.629Z,100398.45
2019-04-23T07:16:04.585Z,100400.72
2019-04-23T07:18:35.817Z,100406.16
2019-04-23T07:21:06.777Z,100409.59
2019-04-23T07:26:24.326Z,100398.44
2019-04-23T07:28:38.198Z,100400.45
2019-04-23T07:31:08.842Z,100393.61
2019-04-23T07:33:36.030Z,100393.17
2019-04-23T07:36:01.929Z,100388.98
2019-04-23T07:42:03.624Z,100382.69
2019-04-23T07:44:35.544Z,100366.41
2019-04-23T07:47:19.463Z,100372.06
2019-04-23T07:49:41.475Z,100365.15
2019-04-23T07:52:18.008Z,100370.75
2019-04-23T07:54:38.736Z,100365.91
2019-04-23T07:57:08.891Z,100353.27
2019-04-23T07:59:37.171Z,100349.28
2019-04-23T08:02:08.116Z,100341.08
2019-04-23T08:04:37.355Z,100347.85
2019-04-23T08:07:01.201Z,100338.09
2019-04-23T08:09:35.929Z,100345.11
2019-04-23T08:11:56.977Z,100345.67
2019-04-23T08:14:26.427Z,100343.41
2019-04-23T08:16:52.239Z,100338.47
2019-04-23T08:19:32.894Z,100341.64
2019-04-23T08:21:58.319Z,100332.11
2019-04-23T08:24:53.700Z,100333.48
2019-04-23T08:27:55.949Z,100325.45
2019-04-23T08:30:09.423Z,100325.94
2019-04-23T08:32:37.242Z,100324.50
2019-04-23T08:35:06.545Z,100328.00
2019-04-23T08:37:54.162Z,100314.71
2019-04-23T08:40:06.452Z,100315.81
2019-04-23T08:45:21.750Z,100322.02
2019-04-23T08:48:09.516Z,100308.17
2019-04-23T08:50:34.944Z,100310.45
2019-04-23T08:53:03.727Z,100314.18
2019-04-23T08:55:34.632Z,100300.99
2019-04-23T08:57:47.166Z,100308.80
2019-04-23T09:00:31.406Z,100309.27
2019-04-23T09:03:16.824Z,100305.23
2019-04-23T09:05:24.245Z,100299.43
2019-04-23T09:10:19.606Z,100290.70
2019-04-23T09:13:32.139Z,100280.57
2019-04-23T09:15:23.828Z,100284.37
2019-04-23T09:17:52.987Z,100276.52
2019-04-23T09:22:40.151Z,100276.42
2019-04-23T09:25:18.515Z,100277.86
2019-04-23T09:27:52.922Z,100271.02
2019-04-23T09:30:14.740Z,100269.19
2019-04-23T09:32:40.156Z,100265.83
2019-04-23T09:35:30.930Z,100266.16
2019-04-23T09:38:11.402Z,100260.70
2019-04-23T09:43:38.238Z,100255.13
2019-04-23T09:46:32.591Z,100251.41
2019-04-23T09:49:09.273Z,100258.36
2019-04-23T09:51:31.283Z,100247.28
2019-04-23T09:54:04.421Z,100231.86
2019-04-23T09:56:32.529Z,100230.67
2019-04-23T09:59:01.223Z,100227.28
2019-04-23T10:03:40.636Z,100224.81
2019-04-23T10:06:09.709Z,100233.41
2019-04-23T10:08:36.318Z,100221.60
2019-04-23T10:10:59.690Z,100209.16
2019-04-23T10:13:26.665Z,100207.80
2019-04-23T10:15:55.404Z,100213.47
2019-04-23T10:18:24.264Z,100204.43
2019-04-23T10:20:52.296Z,100200.59
2019-04-23T10:23:19.263Z,100214.81
2019-04-23T10:25:46.173Z,100194.05
2019-04-23T10:28:22.481Z,100192.87
2019-04-23T10:30:50.844Z,100188.09
2019-04-23T10:33:19.190Z,100188.94
2019-04-23T10:35:55.130Z,100177.25
2019-04-23T10:38:18.623Z,100179.17
2019-04-23T10:40:46.769Z,100167.97
2019-04-23T10:43:13.000Z,100171.61
2019-04-23T10:46:07.982Z,100169.63
2019-04-23T10:49:31.814Z,100164.34
2019-04-23T10:51:59.755Z,100155.66
2019-04-23T10:56:53.316Z,100127.87
2019-04-23T10:59:38.941Z,100147.25
2019-04-23T11:12:23.671Z,100137.56
2019-04-23T11:14:49.806Z,100131.31
2019-04-23T11:17:19.474Z,100127.52
2019-04-23T11:19:52.065Z,100132.45
2019-04-23T11:22:32.931Z,100125.50
2019-04-23T11:24:44.156Z,100129.39
2019-04-23T11:32:19.737Z,100116.48
2019-04-23T11:35:01.920Z,100114.42
2019-04-23T11:37:03.389Z,100111.45
2019-04-23T11:39:37.791Z,100110.45
2019-04-23T11:42:16.853Z,100119.73
2019-04-23T11:50:16.421Z,100099.57
2019-04-23T11:52:07.880Z,100104.46
2019-04-23T11:54:35.832Z,100106.56
2019-04-23T11:57:21.569Z,100096.91
2019-04-23T11:59:35.992Z,100102.67
2019-04-23T12:02:35.143Z,100097.86
2019-04-23T12:05:50.098Z,100084.12
2019-04-23T12:08:28.579Z,100091.11
2019-04-23T12:13:26.990Z,100086.82
2019-04-23T12:15:53.541Z,100082.96
2019-04-23T12:18:25.423Z,100088.05
2019-04-23T12:20:49.764Z,100084.65
2019-04-23T12:23:31.892Z,100092.27
2019-04-23T12:25:53.714Z,100070.70
2019-04-23T12:28:25.248Z,100090.48
2019-04-23T12:30:50.254Z,100084.89
2019-04-23T12:33:30.973Z,100073.41
2019-04-23T12:35:50.008Z,100063.09
2019-04-23T12:40:51.385Z,100064.83
2019-04-23T12:43:18.922Z,100054.31
2019-04-23T12:45:57.612Z,100043.66
2019-04-23T12:53:29.413Z,100050.69
2019-04-23T12:58:18.759Z,100032.36
2019-04-23T13:00:52.766Z,100029.42
2019-04-23T13:03:08.620Z,100017.74
2019-04-23T13:05:32.851Z,100016.08
2019-04-23T13:08:16.121Z,100008.17
2019-04-23T13:13:19.190Z,100013.79
2019-04-23T13:15:34.694Z,100005.91
2019-04-23T13:18:23.684Z,99992.15
2019-04-23T13:20:31.878Z,99996.53
2019-04-23T13:23:12.214Z,99997.60
2019-04-23T13:25:57.574Z,100003.02
2019-04-23T13:28:27.411Z,99989.52
2019-04-23T13:31:06.631Z,99988.22
2019-04-23T13:33:34.728Z,99982.69
2019-04-23T13:36:03.338Z,99967.75
2019-04-23T13:38:34.958Z,99966.52
2019-04-23T13:43:29.508Z,99963.92
2019-04-23T13:48:16.246Z,99958.42
2019-04-23T13:53:29.018Z,99955.82
2019-04-23T13:55:42.511Z,99953.73
2019-04-23T14:00:55.730Z,99940.48
2019-04-23T14:03:23.055Z,99947.75
2019-04-23T14:11:19.511Z,99934.48
2019-04-23T14:16:21.247Z,99918.31
2019-04-23T14:18:53.920Z,99898.65
2019-04-23T14:21:15.967Z,99912.77
2019-04-23T14:23:51.753Z,99912.27
2019-04-23T14:26:17.219Z,99907.61
2019-04-23T14:31:06.821Z,99897.00
2019-04-23T14:41:09.843Z,99880.34
2019-04-23T14:43:30.807Z,99886.33
2019-04-23T14:46:34.326Z,99876.50
2019-04-23T14:48:38.520Z,99874.38
2019-04-23T14:53:30.344Z,99857.73
2019-04-23T14:56:00.284Z,99859.05
2019-04-23T14:58:57.913Z,99856.45
2019-04-23T15:01:16.106Z,99873.02
2019-04-23T15:06:12.700Z,99858.59
2019-04-23T15:08:44.581Z,99855.61
2019-04-23T15:11:19.227Z,99852.12
2019-04-23T15:13:27.471Z,99846.19
2019-04-23T15:16:04.261Z,99848.79
2019-04-23T15:19:02.578Z,99841.48
2019-04-23T15:21:39.690Z,99846.58
2019-04-23T15:23:54.456Z,99845.70
2019-04-23T15:27:04.892Z,99838.86
2019-04-23T15:28:16.853Z,99832.05
2019-04-23T15:31:21.277Z,99836.27
2019-04-23T15:33:48.494Z,99843.54
2019-04-23T15:36:30.537Z,99844.42
2019-04-23T15:38:43.825Z,99833.80
2019-04-23T15:41:07.467Z,99829.46
2019-04-23T15:43:32.372Z,99827.28
2019-04-23T15:46:06.285Z,99831.84
2019-04-23T15:48:33.734Z,99823.67
2019-04-23T15:51:07.355Z,99830.66
2019-04-23T15:53:26.724Z,99816.11
2019-04-23T15:56:06.442Z,99811.75
2019-04-23T16:01:21.173Z,99816.16
2019-04-23T16:03:19.803Z,99806.59
2019-04-23T16:05:46.939Z,99815.09
2019-04-23T16:08:55.549Z,99817.64
2019-04-23T16:11:26.556Z,99832.39
2019-04-23T16:16:45.299Z,99830.95
2019-04-23T16:19:59.711Z,99831.28
2019-04-23T16:24:56.022Z,99816.70
2019-04-23T16:27:07.458Z,99819.10
2019-04-23T16:29:44.114Z,99833.48
2019-04-23T16:32:10.131Z,99828.83
2019-04-23T16:35:03.274Z,99832.06
2019-04-23T16:37:18.443Z,99808.65
2019-04-23T16:39:51.784Z,99829.02
2019-04-23T16:42:17.639Z,99829.44
2019-04-23T16:44:56.933Z,99819.26
2019-04-23T16:47:18.695Z,99824.30
2019-04-23T16:49:51.139Z,99834.86
2019-04-23T16:52:17.601Z,99826.25
2019-04-23T16:54:53.841Z,99825.31
2019-04-23T16:57:21.495Z,99825.31
2019-04-23T17:00:08.207Z,99824.84
2019-04-23T17:04:39.247Z,99820.47
2019-04-23T17:07:02.655Z,99816.19
2019-04-23T17:12:11.849Z,99818.63
2019-04-23T17:14:48.234Z,99803.70
2019-04-23T17:16:53.395Z,99815.66
2019-04-23T17:19:33.422Z,99814.30
2019-04-23T17:22:02.831Z,99817.59
2019-04-23T17:24:25.865Z,99813.41
2019-04-23T17:27:00.827Z,99815.80
2019-04-23T17:29:28.630Z,99819.61
2019-04-23T17:32:05.815Z,99815.80
2019-04-23T17:34:35.054Z,99826.66
2019-04-23T17:37:13.637Z,99822.75
2019-04-23T17:40:04.405Z,99815.94
2019-04-23T17:42:39.296Z,99816.00
2019-04-23T17:45:30.394Z,99816.18
2019-04-23T17:47:59.296Z,99816.98
2019-04-23T17:50:28.781Z,99808.61
2019-04-23T17:53:03.117Z,99815.33
2019-04-23T17:55:21.832Z,99813.42
2019-04-23T17:58:03.440Z,99810.82
2019-04-23T18:05:36.311Z,99817.00
2019-04-23T18:12:53.679Z,99808.73
2019-04-23T18:15:15.788Z,99807.87
2019-04-23T18:20:54.322Z,99812.00
2019-04-23T18:23:06.546Z,99818.57
2019-04-23T18:28:01.268Z,99814.03
2019-04-23T18:31:04.236Z,99824.80
2019-04-23T18:34:00.141Z,99816.27
2019-04-23T18:35:56.645Z,99821.33
2019-04-23T18:38:31.605Z,99818.31
2019-04-23T18:41:26.148Z,99823.44
2019-04-23T18:46:18.681Z,99817.11
2019-04-23T18:48:41.620Z,99832.25
2019-04-23T18:51:07.771Z,99822.81
2019-04-23T18:58:35.297Z,99831.35
2019-04-23T19:01:19.836Z,99829.45
2019-04-23T19:04:17.242Z,99830.64
2019-04-23T19:06:30.427Z,99834.33
2019-04-23T19:14:38.748Z,99824.25
2019-04-23T19:17:08.863Z,99835.09
2019-04-23T19:19:20.155Z,99830.88
2019-04-23T19:24:22.171Z,99822.31
2019-04-23T19:29:24.509Z,99828.00
2019-04-23T19:32:28.284Z,99829.31
2019-04-23T19:34:39.068Z,99832.54
2019-04-23T19:37:11.095Z,99832.31
2019-04-23T19:39:40.579Z,99833.24
2019-04-23T19:42:18.034Z,99823.17
2019-04-23T19:44:40.669Z,99836.05
2019-04-23T19:49:36.965Z,99838.58
2019-04-23T19:57:02.065Z,99836.03
2019-04-23T19:59:44.695Z,99829.54
2019-04-23T20:02:07.418Z,99832.51
2019-04-23T20:04:38.705Z,99834.24
2019-04-23T20:07:15.926Z,99827.99
2019-04-23T20:09:43.128Z,99827.16
2019-04-23T20:12:01.027Z,99828.70
2019-04-23T20:14:34.575Z,99824.54
2019-04-23T20:17:20.272Z,99819.70
2019-04-23T20:19:30.128Z,99818.95
2019-04-23T20:22:00.553Z,99825.89
2019-04-23T20:24:34.747Z,99826.03
2019-04-23T20:31:44.984Z,99828.48
2019-04-23T20:33:27.916Z,99814.36
2019-04-23T20:35:16.534Z,99814.36
2019-04-23T20:40:06.494Z,99805.86
2019-04-23T20:42:37.245Z,99803.66
2019-04-23T20:44:59.051Z,99802.58
2019-04-23T20:47:34.743Z,99803.94
2019-04-23T20:50:10.571Z,99804.85
2019-04-23T20:52:20.445Z,99803.33
2019-04-23T20:55:02.031Z,99796.87
2019-04-23T20:57:45.712Z,99791.91
2019-04-23T21:00:36.379Z,99794.20
2019-04-23T21:03:11.684Z,99799.70
2019-04-23T21:05:29.556Z,99796.34
2019-04-23T21:18:11.839Z,99790.84
2019-04-23T21:20:24.469Z,99792.32
2019-04-23T21:23:01.188Z,99787.32
2019-04-23T21:25:27.886Z,99789.61
2019-04-23T21:28:04.697Z,99789.61
2019-04-23T21:33:15.895Z,99788.85
2019-04-23T21:38:49.027Z,99777.64
2019-04-23T21:44:08.295Z,99784.19
2019-04-23T21:46:41.217Z,99779.05
2019-04-23T21:51:38.418Z,99780.06
2019-04-23T21:53:55.446Z,99772.55
2019-04-23T21:58:58.036Z,99772.06
2019-04-23T22:06:30.618Z,99770.17
2019-04-23T22:09:12.464Z,99769.39
2019-04-23T22:11:53.658Z,99769.86
2019-04-23T22:14:05.483Z,99767.05
2019-04-23T22:21:36.709Z,99758.86
2019-04-23T22:24:02.435Z,99762.19
2019-04-23T22:31:18.738Z,99758.91
2019-04-23T22:33:56.807Z,99749.16
2019-04-23T22:36:16.002Z,99749.45
2019-04-23T22:38:49.483Z,99749.48
2019-04-23T22:41:15.918Z,99747.38
2019-04-23T22:43:53.120Z,99750.07
2019-04-23T22:46:15.503Z,99749.61
2019-04-23T22:48:59.951Z,99745.16
2019-04-23T22:51:38.683Z,99740.80
2019-04-23T22:53:50.808Z,99735.02
2019-04-23T22:56:19.699Z,99736.72
2019-04-23T22:58:51.754Z,99731.48
2019-04-23T23:04:01.178Z,99724.30
2019-04-23T23:06:32.599Z,99732.38
2019-04-23T23:09:10.227Z,99726.37
2019-04-23T23:11:13.704Z,99727.73
2019-04-23T23:14:09.909Z,99719.30
2019-04-23T23:16:18.971Z,99729.34
2019-04-23T23:18:52.429Z,99718.63
2019-04-23T23:21:20.634Z,99721.89
2019-04-23T23:23:49.782Z,99720.72
2019-04-23T23:28:40.960Z,99731.05
2019-04-23T23:31:13.774Z,99728.39
2019-04-23T23:33:50.855Z,99727.84
2019-04-23T23:36:18.129Z,99726.78
2019-04-23T23:39:00.735Z,99734.16
2019-04-23T23:46:13.706Z,99720.48
2019-04-23T23:48:35.366Z,99722.46
2019-04-23T23:51:11.478Z,99719.58
2019-04-23T23:53:39.809Z,99722.11
